Traveler — WDD5082 — position and weather

sailwx.info

Track history (hours):
 
Tides and Currents Weather Stations Pressure Air Temp Water Temp Dewpoint Dewpoint Depression Visibility Wind Speed Wind Dir Waves Ship Positions

Traveler

Owner: Traveler Fisheries LLC, Seattle, WA. More information available from US FCC via Universal Licensing System and Coast Guard Vessel Documentation Center.

Last reported at 2017-Oct-15 20:19 UTC. Time now 2017-Oct-20 05:01 UTC.
Position N 43°52' W 124°53'.

Length 36 m.

Type: Fishing. MMSI: 366401480.

Date/timePositionNaut miles runAvg speedWind from/ knotsBaromVisibWave heightAir tempDewpointWater temp
2017-Oct-15 20:19N 43°52' W 124°53'1 3.5
2017-Oct-15 19:57N 43°52' W 124°55'4 0.4
2017-Oct-15 09:30N 43°50' W 124°50'12 1.2
2017-Oct-14 23:47N 43°60' W 125°00'1 3.2
2017-Oct-14 23:30N 43°59' W 124°60'2 3.1
2017-Oct-14 22:53N 43°57' W 124°59'1 3.0
2017-Oct-14 22:30N 43°56' W 124°59'4 2.2
2017-Oct-14 20:34N 44°00' W 124°58'0 3.2
2017-Oct-14 20:29N 44°01' W 124°58'1 1.3
2017-Oct-14 20:00N 43°60' W 124°59'2 3.2
2017-Oct-14 19:30N 43°59' W 125°00'1 1.6
2017-Oct-14 18:58N 43°58' W 124°60'1 2.4
2017-Oct-14 18:29N 43°57' W 124°59'2 3.5
2017-Oct-14 17:59N 43°56' W 124°58'  
2017-Oct-10 05:10N 44°07' W 125°00'1 3.8
2017-Oct-10 04:58N 44°06' W 124°60'10 2.1
2017-Oct-10 00:16N 44°16' W 124°57'1 2.2
2017-Oct-10 00:00N 44°16' W 124°57'2 2.6
2017-Oct-09 23:19N 44°14' W 124°58'1 2.6
2017-Oct-09 23:00N 44°13' W 124°59'1 2.6
2017-Oct-09 22:29N 44°12' W 124°59'1 2.7
2017-Oct-09 22:00N 44°11' W 124°60'0 0.5
2017-Oct-09 21:29N 44°11' W 124°60'0 1.0
2017-Oct-09 21:00N 44°11' W 125°00'1 1.6
2017-Oct-09 20:30N 44°12' W 124°60'1 2.7
2017-Oct-09 20:00N 44°13' W 124°59'3 3.4
2017-Oct-09 19:15N 44°15' W 124°59'1 5.3
2017-Oct-09 19:00N 44°14' W 124°59'4 7.6
2017-Oct-09 18:30N 44°10' W 124°59'4 7.7
2017-Oct-09 18:00N 44°06' W 124°59'19 1.5
2017-Oct-09 05:14N 43°49' W 124°47'1 2.6
2017-Oct-09 04:43N 43°50' W 124°49'1 2.9
2017-Oct-09 04:26N 43°49' W 124°50'1 2.7
2017-Oct-09 03:59N 43°49' W 124°52'1 2.9
2017-Oct-09 03:31N 43°50' W 124°53'15 0.3
2017-Oct-07 04:14N 43°40' W 124°38'1 6.0
2017-Oct-07 04:00N 43°40' W 124°40'4 5.9
2017-Oct-07 03:23N 43°37' W 124°37'2 6.3
2017-Oct-07 03:00N 43°35' W 124°37'3 6.2
2017-Oct-07 02:30N 43°32' W 124°39'3 6.2
2017-Oct-07 02:00N 43°29' W 124°41'3 5.9
2017-Oct-07 01:30N 43°27' W 124°43'3 5.7
2017-Oct-07 01:00N 43°24' W 124°45'3 5.6
2017-Oct-07 00:30N 43°22' W 124°47'3 5.5
2017-Oct-07 00:01N 43°20' W 124°49'3 5.5
2017-Oct-06 23:30N 43°17' W 124°51'3 4.8
2017-Oct-06 22:56N 43°14' W 124°52'5 6.5
2017-Oct-06 22:08N 43°14' W 124°45'1 6.3
2017-Oct-06 22:00N 43°15' W 124°45'8 6.4
2017-Oct-06 20:42N 43°23' W 124°43'2 5.0
2017-Oct-06 20:21N 43°25' W 124°41'2 6.2
2017-Oct-06 20:01N 43°27' W 124°41'3 4.8
2017-Oct-06 19:24N 43°29' W 124°40'2 5.1
2017-Oct-06 19:01N 43°31' W 124°39'3 5.7
2017-Oct-06 18:30N 43°34' W 124°39'3 6.6
2017-Oct-06 18:00N 43°37' W 124°40'3 5.4
2017-Oct-06 17:29N 43°39' W 124°37'2 3.6
2017-Oct-06 17:00N 43°41' W 124°38'3 5.7
2017-Oct-06 16:31N 43°43' W 124°40'3 4.4
2017-Oct-06 15:52N 43°46' W 124°41'1 2.4
2017-Oct-06 15:24N 43°46' W 124°40'2 2.2
2017-Oct-06 14:32N 43°48' W 124°40'0 3.3
2017-Oct-06 14:30N 43°48' W 124°40'1 2.8
2017-Oct-06 14:00N 43°49' W 124°40'2 3.1
2017-Oct-06 13:30N 43°50' W 124°42'1 2.9
2017-Oct-06 13:00N 43°50' W 124°44'1 2.0
2017-Oct-06 12:30N 43°50' W 124°46'5 6.1
2017-Oct-06 11:45N 43°47' W 124°40'0 1.7
2017-Oct-06 11:30N 43°47' W 124°41'1 1.4
2017-Oct-06 10:57N 43°48' W 124°42'1 2.5
2017-Oct-06 10:30N 43°49' W 124°42'1 2.1
2017-Oct-06 09:55N 43°49' W 124°40'1 2.4
2017-Oct-06 09:30N 43°48' W 124°40'1 2.9
2017-Oct-06 09:00N 43°47' W 124°40'1 2.9
2017-Oct-06 08:30N 43°45' W 124°40'1 3.0
2017-Oct-06 08:00N 43°44' W 124°40'2 3.1
2017-Oct-06 07:30N 43°42' W 124°39'2 3.1
2017-Oct-06 07:00N 43°41' W 124°39'2 3.3
2017-Oct-06 06:30N 43°39' W 124°39'1 2.4
2017-Oct-06 06:00N 43°40' W 124°39'3 6.6
2017-Oct-06 05:29N 43°43' W 124°41'1 1.8
2017-Oct-06 05:00N 43°42' W 124°41'1 1.8
2017-Oct-06 04:30N 43°41' W 124°40'1 2.8
2017-Oct-06 04:00N 43°40' W 124°41'1 2.3
2017-Oct-06 03:30N 43°39' W 124°40'1 2.6
2017-Oct-06 03:01N 43°40' W 124°39'1 2.4
2017-Oct-06 02:30N 43°41' W 124°39'2 3.2
2017-Oct-06 02:00N 43°43' W 124°39'2 3.0
2017-Oct-06 01:30N 43°44' W 124°40'2 3.1
2017-Oct-06 00:46N 43°46' W 124°39'1 3.1
2017-Oct-06 00:26N 43°47' W 124°39'1 3.3
2017-Oct-06 00:00N 43°49' W 124°40'2 3.9
2017-Oct-05 23:30N 43°51' W 124°40'3 6.9
2017-Oct-05 23:00N 43°47' W 124°39'1 1.8
2017-Oct-05 22:30N 43°47' W 124°40'  
Track history (hours):
 
Tides and Currents Weather Stations Pressure Air Temp Water Temp Dewpoint Dewpoint Depression Visibility Wind Speed Wind Dir Waves Ship Positions

Traveler

Owner: Traveler Fisheries LLC, Seattle, WA. More information available from US FCC via Universal Licensing System and Coast Guard Vessel Documentation Center.

Last reported at 2017-Oct-15 20:19 UTC. Time now 2017-Oct-20 05:01 UTC.
Position N 43°52' W 124°53'.

Length 36 m.

Type: Fishing. MMSI: 366401480.

Date/timePositionNaut miles runAvg speedWind from/ knotsBaromVisibWave heightAir tempDewpointWater temp
2017-Oct-15 20:19N 43°52' W 124°53'1 3.5
2017-Oct-15 19:57N 43°52' W 124°55'4 0.4
2017-Oct-15 09:30N 43°50' W 124°50'12 1.2
2017-Oct-14 23:47N 43°60' W 125°00'1 3.2
2017-Oct-14 23:30N 43°59' W 124°60'2 3.1
2017-Oct-14 22:53N 43°57' W 124°59'1 3.0
2017-Oct-14 22:30N 43°56' W 124°59'4 2.2
2017-Oct-14 20:34N 44°00' W 124°58'0 3.2
2017-Oct-14 20:29N 44°01' W 124°58'1 1.3
2017-Oct-14 20:00N 43°60' W 124°59'2 3.2
2017-Oct-14 19:30N 43°59' W 125°00'1 1.6
2017-Oct-14 18:58N 43°58' W 124°60'1 2.4
2017-Oct-14 18:29N 43°57' W 124°59'2 3.5
2017-Oct-14 17:59N 43°56' W 124°58'  
2017-Oct-10 05:10N 44°07' W 125°00'1 3.8
2017-Oct-10 04:58N 44°06' W 124°60'10 2.1
2017-Oct-10 00:16N 44°16' W 124°57'1 2.2
2017-Oct-10 00:00N 44°16' W 124°57'2 2.6
2017-Oct-09 23:19N 44°14' W 124°58'1 2.6
2017-Oct-09 23:00N 44°13' W 124°59'1 2.6
2017-Oct-09 22:29N 44°12' W 124°59'1 2.7
2017-Oct-09 22:00N 44°11' W 124°60'0 0.5
2017-Oct-09 21:29N 44°11' W 124°60'0 1.0
2017-Oct-09 21:00N 44°11' W 125°00'1 1.6
2017-Oct-09 20:30N 44°12' W 124°60'1 2.7
2017-Oct-09 20:00N 44°13' W 124°59'3 3.4
2017-Oct-09 19:15N 44°15' W 124°59'1 5.3
2017-Oct-09 19:00N 44°14' W 124°59'4 7.6
2017-Oct-09 18:30N 44°10' W 124°59'4 7.7
2017-Oct-09 18:00N 44°06' W 124°59'19 1.5
2017-Oct-09 05:14N 43°49' W 124°47'1 2.6
2017-Oct-09 04:43N 43°50' W 124°49'1 2.9
2017-Oct-09 04:26N 43°49' W 124°50'1 2.7
2017-Oct-09 03:59N 43°49' W 124°52'1 2.9
2017-Oct-09 03:31N 43°50' W 124°53'15 0.3
2017-Oct-07 04:14N 43°40' W 124°38'1 6.0
2017-Oct-07 04:00N 43°40' W 124°40'4 5.9
2017-Oct-07 03:23N 43°37' W 124°37'2 6.3
2017-Oct-07 03:00N 43°35' W 124°37'3 6.2
2017-Oct-07 02:30N 43°32' W 124°39'3 6.2
2017-Oct-07 02:00N 43°29' W 124°41'3 5.9
2017-Oct-07 01:30N 43°27' W 124°43'3 5.7
2017-Oct-07 01:00N 43°24' W 124°45'3 5.6
2017-Oct-07 00:30N 43°22' W 124°47'3 5.5
2017-Oct-07 00:01N 43°20' W 124°49'3 5.5
2017-Oct-06 23:30N 43°17' W 124°51'3 4.8
2017-Oct-06 22:56N 43°14' W 124°52'5 6.5
2017-Oct-06 22:08N 43°14' W 124°45'1 6.3
2017-Oct-06 22:00N 43°15' W 124°45'8 6.4
2017-Oct-06 20:42N 43°23' W 124°43'2 5.0
2017-Oct-06 20:21N 43°25' W 124°41'2 6.2
2017-Oct-06 20:01N 43°27' W 124°41'3 4.8
2017-Oct-06 19:24N 43°29' W 124°40'2 5.1
2017-Oct-06 19:01N 43°31' W 124°39'3 5.7
2017-Oct-06 18:30N 43°34' W 124°39'3 6.6
2017-Oct-06 18:00N 43°37' W 124°40'3 5.4
2017-Oct-06 17:29N 43°39' W 124°37'2 3.6
2017-Oct-06 17:00N 43°41' W 124°38'3 5.7
2017-Oct-06 16:31N 43°43' W 124°40'3 4.4
2017-Oct-06 15:52N 43°46' W 124°41'1 2.4
2017-Oct-06 15:24N 43°46' W 124°40'2 2.2
2017-Oct-06 14:32N 43°48' W 124°40'0 3.3
2017-Oct-06 14:30N 43°48' W 124°40'1 2.8
2017-Oct-06 14:00N 43°49' W 124°40'2 3.1
2017-Oct-06 13:30N 43°50' W 124°42'1 2.9
2017-Oct-06 13:00N 43°50' W 124°44'1 2.0
2017-Oct-06 12:30N 43°50' W 124°46'5 6.1
2017-Oct-06 11:45N 43°47' W 124°40'0 1.7
2017-Oct-06 11:30N 43°47' W 124°41'1 1.4
2017-Oct-06 10:57N 43°48' W 124°42'1 2.5
2017-Oct-06 10:30N 43°49' W 124°42'1 2.1
2017-Oct-06 09:55N 43°49' W 124°40'1 2.4
2017-Oct-06 09:30N 43°48' W 124°40'1 2.9
2017-Oct-06 09:00N 43°47' W 124°40'1 2.9
2017-Oct-06 08:30N 43°45' W 124°40'1 3.0
2017-Oct-06 08:00N 43°44' W 124°40'2 3.1
2017-Oct-06 07:30N 43°42' W 124°39'2 3.1
2017-Oct-06 07:00N 43°41' W 124°39'2 3.3
2017-Oct-06 06:30N 43°39' W 124°39'1 2.4
2017-Oct-06 06:00N 43°40' W 124°39'3 6.6
2017-Oct-06 05:29N 43°43' W 124°41'1 1.8
2017-Oct-06 05:00N 43°42' W 124°41'1 1.8
2017-Oct-06 04:30N 43°41' W 124°40'1 2.8
2017-Oct-06 04:00N 43°40' W 124°41'1 2.3
2017-Oct-06 03:30N 43°39' W 124°40'1 2.6
2017-Oct-06 03:01N 43°40' W 124°39'1 2.4
2017-Oct-06 02:30N 43°41' W 124°39'2 3.2
2017-Oct-06 02:00N 43°43' W 124°39'2 3.0
2017-Oct-06 01:30N 43°44' W 124°40'2 3.1
2017-Oct-06 00:46N 43°46' W 124°39'1 3.1
2017-Oct-06 00:26N 43°47' W 124°39'1 3.3
2017-Oct-06 00:00N 43°49' W 124°40'2 3.9
2017-Oct-05 23:30N 43°51' W 124°40'3 6.9
2017-Oct-05 23:00N 43°47' W 124°39'1 1.8
2017-Oct-05 22:30N 43°47' W 124°40'  

Dump ship's entire track history